createdAt,value
2023-04-02T00:00:36.970Z,94.27
2023-04-02T00:03:08.502Z,93.44
2023-04-02T00:05:52.255Z,93.46
2023-04-02T00:08:26.588Z,94.34
2023-04-02T00:10:59.961Z,92.94
2023-04-02T00:13:35.091Z,92.74
2023-04-02T00:16:06.569Z,93.02
2023-04-02T00:18:40.117Z,92.43
2023-04-02T00:21:21.340Z,91.38
2023-04-02T00:23:48.672Z,90.77
2023-04-02T00:26:31.474Z,90.62
2023-04-02T00:29:00.983Z,90.18
2023-04-02T00:31:28.335Z,91.02
2023-04-02T00:33:56.075Z,89.41
2023-04-02T00:36:26.790Z,89.42
2023-04-02T00:38:56.844Z,89.79
2023-04-02T00:41:29.762Z,91.36
2023-04-02T00:44:01.436Z,90.46
2023-04-02T00:46:34.591Z,90.55
2023-04-02T00:49:10.669Z,89.63
2023-04-02T00:51:44.449Z,88.99
2023-04-02T00:54:15.830Z,89.21
2023-04-02T00:56:45.665Z,89.95
2023-04-02T00:59:30.206Z,90.21
2023-04-02T01:02:18.584Z,90.86
2023-04-02T01:05:02.531Z,91.24
2023-04-02T01:07:54.080Z,91.41
2023-04-02T01:10:33.998Z,90.53
2023-04-02T01:13:38.829Z,91.03
2023-04-02T01:16:20.999Z,90.98
2023-04-02T01:18:56.776Z,89.06
2023-04-02T01:21:53.860Z,89.65
2023-04-02T01:24:24.640Z,90.27
2023-04-02T01:27:20.846Z,89.25
2023-04-02T01:29:57.742Z,88.84
2023-04-02T01:32:28.425Z,89.19
2023-04-02T01:34:56.335Z,88.19
2023-04-02T01:37:49.785Z,88.05
2023-04-02T01:40:38.532Z,87.06
2023-04-02T01:43:14.341Z,87.40
2023-04-02T01:45:41.568Z,89.25
2023-04-02T01:48:21.152Z,89.05
2023-04-02T01:50:51.676Z,89.25
2023-04-02T01:53:21.523Z,90.28
2023-04-02T01:55:59.508Z,89.55
2023-04-02T01:58:31.501Z,89.17
2023-04-02T02:01:08.357Z,89.89
2023-04-02T02:03:35.532Z,89.16
2023-04-02T02:06:03.424Z,89.26
2023-04-02T02:08:46.782Z,89.78
2023-04-02T02:11:21.541Z,87.97
2023-04-02T02:13:54.748Z,88.54
2023-04-02T02:16:22.887Z,88.36
2023-04-02T02:18:53.873Z,88.34
2023-04-02T02:21:45.787Z,85.90
2023-04-02T02:24:24.200Z,82.86
2023-04-02T02:26:57.054Z,83.12
2023-04-02T02:29:26.988Z,82.86
2023-04-02T02:31:56.301Z,82.20
2023-04-02T02:34:33.374Z,84.29
2023-04-02T02:37:07.385Z,84.30
2023-04-02T02:39:39.289Z,83.31
2023-04-02T02:42:24.344Z,83.57
2023-04-02T02:44:55.220Z,84.03
2023-04-02T02:47:28.273Z,85.09
2023-04-02T02:49:59.365Z,86.72
2023-04-02T02:52:30.970Z,86.66
2023-04-02T02:55:04.890Z,87.48
2023-04-02T02:58:03.432Z,87.26
2023-04-02T03:00:31.970Z,87.35
2023-04-02T03:02:58.868Z,86.08
2023-04-02T03:05:28.059Z,86.20
2023-04-02T03:07:57.228Z,86.80
2023-04-02T03:10:44.631Z,86.64
2023-04-02T03:13:26.998Z,87.01
2023-04-02T03:16:11.794Z,87.33
2023-04-02T03:18:44.195Z,87.09
2023-04-02T03:21:22.311Z,86.65
2023-04-02T03:24:00.729Z,86.41
2023-04-02T03:26:34.052Z,85.67
2023-04-02T03:29:16.410Z,86.13
2023-04-02T03:32:06.082Z,83.27
2023-04-02T03:34:37.805Z,82.63
2023-04-02T03:37:10.959Z,81.73
2023-04-02T03:39:46.574Z,82.03
2023-04-02T03:42:26.058Z,82.20
2023-04-02T03:44:56.034Z,84.19
2023-04-02T03:47:40.102Z,82.87
2023-04-02T03:50:35.490Z,82.20
2023-04-02T03:53:04.081Z,82.69
2023-04-02T03:55:35.489Z,81.49
2023-04-02T03:58:44.212Z,81.92
2023-04-02T04:01:17.656Z,82.55
2023-04-02T04:03:53.971Z,80.49
2023-04-02T04:06:27.503Z,81.53
2023-04-02T04:08:59.574Z,82.28
2023-04-02T04:11:33.978Z,80.62
2023-04-02T04:14:13.549Z,81.90
2023-04-02T04:16:59.846Z,80.98
2023-04-02T04:20:08.278Z,80.46
2023-04-02T04:22:35.009Z,79.95
2023-04-02T04:25:18.089Z,79.94
2023-04-02T04:27:57.348Z,79.94
2023-04-02T04:30:27.305Z,80.20
2023-04-02T04:33:10.898Z,79.97
2023-04-02T04:38:28.556Z,81.27
2023-04-02T04:40:59.618Z,82.20
2023-04-02T04:43:48.343Z,82.04
2023-04-02T04:46:25.757Z,83.33
2023-04-02T04:49:09.065Z,83.26
2023-04-02T04:51:42.140Z,83.20
2023-04-02T04:54:13.620Z,83.01
2023-04-02T04:56:44.736Z,83.84
2023-04-02T04:59:26.257Z,84.12
2023-04-02T05:02:10.599Z,84.27
2023-04-02T05:04:40.863Z,83.64
2023-04-02T05:07:17.160Z,84.35
2023-04-02T05:09:52.829Z,85.00
2023-04-02T05:12:40.431Z,84.20
2023-04-02T05:15:24.815Z,85.03
2023-04-02T05:18:31.248Z,83.74
2023-04-02T05:21:13.649Z,85.23
2023-04-02T05:24:00.927Z,82.71
2023-04-02T05:26:39.530Z,82.48
2023-04-02T05:29:13.456Z,81.72
2023-04-02T05:31:49.867Z,81.36
2023-04-02T05:34:26.212Z,80.89
2023-04-02T05:36:55.594Z,79.95
2023-04-02T05:39:25.112Z,79.94
2023-04-02T05:42:02.801Z,81.47
2023-04-02T05:44:37.839Z,80.33
2023-04-02T05:47:27.551Z,80.88
2023-04-02T05:50:01.087Z,81.07
2023-04-02T05:52:34.051Z,81.68
2023-04-02T05:55:22.030Z,81.20
2023-04-02T05:58:21.140Z,81.58
2023-04-02T06:01:07.616Z,81.06
2023-04-02T06:03:57.686Z,81.24
2023-04-02T06:06:41.437Z,81.66
2023-04-02T06:09:15.311Z,79.42
2023-04-02T06:11:49.527Z,79.13
2023-04-02T06:14:17.766Z,77.79
2023-04-02T06:16:46.304Z,79.03
2023-04-02T06:19:23.723Z,63.28
2023-04-02T06:21:59.017Z,63.79
2023-04-02T06:24:29.330Z,72.42
2023-04-02T06:27:02.904Z,72.33
2023-04-02T06:29:40.099Z,73.55
2023-04-02T06:32:08.796Z,73.90
2023-04-02T06:34:38.855Z,76.96
2023-04-02T06:37:33.298Z,78.16
2023-04-02T06:40:01.071Z,78.92
2023-04-02T06:42:35.327Z,79.14
2023-04-02T06:45:03.356Z,80.69
2023-04-02T06:47:34.447Z,78.33
2023-04-02T06:50:06.809Z,78.57
2023-04-02T06:52:40.087Z,78.60
2023-04-02T06:55:20.705Z,78.18
2023-04-02T06:57:48.405Z,77.60
2023-04-02T07:00:21.838Z,77.40
2023-04-02T07:02:49.918Z,76.83
2023-04-02T07:05:17.103Z,76.87
2023-04-02T07:07:44.555Z,75.92
2023-04-02T07:10:12.350Z,70.11
2023-04-02T07:12:39.194Z,71.54
2023-04-02T07:15:07.126Z,69.78
2023-04-02T07:17:34.289Z,67.54
2023-04-02T07:20:01.578Z,64.63
2023-04-02T07:22:28.852Z,63.68
2023-04-02T07:24:55.953Z,62.55
2023-04-02T07:27:23.119Z,61.13
2023-04-02T07:29:50.425Z,62.30
2023-04-02T07:32:17.810Z,61.28
2023-04-02T07:34:45.495Z,62.55
2023-04-02T07:37:14.498Z,61.69
2023-04-02T07:39:41.548Z,61.99
2023-04-02T07:42:15.500Z,62.18
2023-04-02T07:44:42.958Z,65.11
2023-04-02T07:47:10.743Z,65.83
2023-04-02T07:49:37.973Z,64.91
2023-04-02T07:52:05.349Z,66.72
2023-04-02T07:54:32.651Z,66.62
2023-04-02T07:56:59.633Z,65.51
2023-04-02T07:59:26.867Z,74.12
2023-04-02T08:01:54.486Z,68.59
2023-04-02T08:04:22.901Z,69.75
2023-04-02T08:06:50.413Z,69.95
2023-04-02T08:09:17.708Z,69.66
2023-04-02T08:11:46.400Z,70.17
2023-04-02T08:14:13.780Z,68.38
2023-04-02T08:16:50.945Z,64.57
2023-04-02T08:19:18.960Z,63.64
2023-04-02T08:21:48.074Z,64.68
2023-04-02T08:24:15.031Z,63.21
2023-04-02T08:26:43.981Z,62.61
2023-04-02T08:29:12.537Z,61.97
2023-04-02T08:31:39.982Z,61.60
2023-04-02T08:34:07.929Z,61.96
2023-04-02T08:36:39.528Z,63.08
2023-04-02T08:39:11.875Z,62.70
2023-04-02T08:41:49.613Z,64.35
2023-04-02T08:44:28.183Z,67.01
2023-04-02T08:47:03.272Z,65.40
2023-04-02T08:49:35.909Z,65.03
2023-04-02T08:52:02.709Z,64.55
2023-04-02T08:54:34.799Z,64.79
2023-04-02T08:57:09.649Z,66.94
2023-04-02T08:59:43.232Z,66.06
2023-04-02T09:02:37.838Z,60.54
2023-04-02T09:05:08.263Z,61.69
2023-04-02T09:07:35.294Z,56.23
2023-04-02T09:10:02.810Z,59.23
2023-04-02T09:12:31.793Z,59.97
2023-04-02T09:15:11.116Z,56.30
2023-04-02T09:17:50.735Z,53.68
2023-04-02T09:20:29.558Z,51.07
2023-04-02T09:22:57.901Z,49.02
2023-04-02T09:25:28.493Z,48.85
2023-04-02T09:27:57.989Z,48.02
2023-04-02T09:30:47.489Z,49.36
2023-04-02T09:33:14.825Z,51.56
2023-04-02T09:35:51.293Z,52.66
2023-04-02T09:38:23.371Z,52.53
2023-04-02T09:40:53.863Z,50.24
2023-04-02T09:43:22.031Z,47.03
2023-04-02T09:46:04.926Z,45.13
2023-04-02T09:48:44.039Z,44.21
2023-04-02T09:51:24.843Z,46.08
2023-04-02T09:54:06.891Z,45.09
2023-04-02T09:56:36.275Z,43.14
2023-04-02T09:59:03.268Z,44.51
2023-04-02T10:01:32.327Z,44.90
2023-04-02T10:04:00.172Z,46.14
2023-04-02T10:06:31.337Z,46.40
2023-04-02T10:08:58.506Z,45.17
2023-04-02T10:11:43.764Z,43.92
2023-04-02T10:14:25.734Z,43.23
2023-04-02T10:17:19.137Z,45.25
2023-04-02T10:20:00.793Z,42.32
2023-04-02T10:22:28.426Z,41.78
2023-04-02T10:24:55.498Z,41.19
2023-04-02T10:27:52.314Z,39.24
2023-04-02T10:30:32.572Z,39.39
2023-04-02T10:32:59.958Z,38.42
2023-04-02T10:35:40.823Z,38.24
2023-04-02T10:38:26.528Z,41.47
2023-04-02T10:41:00.595Z,38.35
2023-04-02T10:43:41.188Z,38.53
2023-04-02T10:46:19.185Z,41.25
2023-04-02T10:48:57.232Z,37.75
2023-04-02T10:51:52.154Z,39.01
2023-04-02T10:54:28.939Z,36.31
2023-04-02T10:57:05.044Z,38.33
2023-04-02T10:59:37.358Z,39.29
2023-04-02T11:02:20.718Z,39.73
2023-04-02T11:04:48.312Z,37.77
2023-04-02T11:07:21.381Z,34.60
2023-04-02T11:09:52.298Z,34.63
2023-04-02T11:12:27.832Z,35.05
2023-04-02T11:14:56.534Z,38.18
2023-04-02T11:17:24.609Z,40.00
2023-04-02T11:19:52.759Z,38.72
2023-04-02T11:22:23.336Z,40.01
2023-04-02T11:24:56.037Z,39.52
2023-04-02T11:27:29.193Z,40.11
2023-04-02T11:30:08.204Z,40.88
2023-04-02T11:32:43.377Z,42.13
2023-04-02T11:35:32.493Z,40.48
2023-04-02T11:38:12.368Z,39.41
2023-04-02T11:40:52.935Z,38.93
2023-04-02T11:43:36.044Z,36.84
2023-04-02T11:46:34.327Z,41.07
2023-04-02T11:49:36.311Z,38.82
2023-04-02T11:52:12.037Z,38.27
2023-04-02T11:54:40.789Z,38.50
2023-04-02T11:57:30.774Z,36.41
2023-04-02T12:00:16.271Z,38.44
2023-04-02T12:03:04.546Z,40.10
2023-04-02T12:05:48.232Z,38.61
2023-04-02T12:08:54.332Z,37.31
2023-04-02T12:11:35.859Z,40.35
2023-04-02T12:14:26.988Z,38.94
2023-04-02T12:16:54.530Z,40.28
2023-04-02T12:19:24.179Z,41.62
2023-04-02T12:21:56.491Z,38.89
2023-04-02T12:24:26.809Z,36.72
2023-04-02T12:27:14.991Z,38.14
2023-04-02T12:29:42.994Z,36.78
2023-04-02T12:32:29.572Z,38.17
2023-04-02T12:34:58.924Z,38.78
2023-04-02T12:37:30.632Z,40.00
2023-04-02T12:40:15.698Z,42.03
2023-04-02T12:42:42.567Z,44.03
2023-04-02T12:45:22.599Z,40.84
2023-04-02T12:47:50.618Z,36.76
2023-04-02T12:50:18.066Z,39.62
2023-04-02T12:52:47.580Z,41.58
2023-04-02T12:55:24.576Z,42.63
2023-04-02T12:57:59.496Z,40.85
2023-04-02T13:00:29.850Z,38.59
2023-04-02T13:03:17.532Z,40.06
2023-04-02T13:05:52.355Z,40.58
2023-04-02T13:08:28.029Z,42.27
2023-04-02T13:11:06.230Z,40.91
2023-04-02T13:13:39.481Z,40.99
2023-04-02T13:16:20.766Z,42.63
2023-04-02T13:18:49.363Z,41.33
2023-04-02T13:21:16.885Z,42.19
2023-04-02T13:23:46.147Z,44.22
2023-04-02T13:26:31.580Z,43.97
2023-04-02T13:29:00.455Z,43.88
2023-04-02T13:31:32.588Z,43.19
2023-04-02T13:33:59.984Z,42.21
2023-04-02T13:36:29.271Z,40.72
2023-04-02T13:38:57.417Z,36.98
2023-04-02T13:41:27.420Z,36.66
2023-04-02T13:43:57.254Z,36.52
2023-04-02T13:46:27.698Z,37.97
2023-04-02T13:48:56.697Z,38.94
2023-04-02T13:51:31.823Z,37.73
2023-04-02T13:53:59.557Z,38.88
2023-04-02T13:56:27.153Z,38.07
2023-04-02T13:58:54.666Z,36.91
2023-04-02T14:01:23.692Z,36.89
2023-04-02T14:03:53.000Z,37.08
2023-04-02T14:06:45.804Z,35.56
2023-04-02T14:09:37.566Z,35.46
2023-04-02T14:12:23.807Z,34.26
2023-04-02T14:15:03.335Z,35.11
2023-04-02T14:17:51.889Z,36.53
2023-04-02T14:20:30.587Z,39.50
2023-04-02T14:23:06.482Z,39.95
2023-04-02T14:25:46.282Z,40.05
2023-04-02T14:28:47.409Z,38.65
2023-04-02T14:31:24.932Z,38.78
2023-04-02T14:33:56.806Z,39.94
2023-04-02T14:36:26.838Z,38.60
2023-04-02T14:39:18.152Z,41.84
2023-04-02T14:41:57.040Z,40.28
2023-04-02T14:44:27.761Z,39.74
2023-04-02T14:47:02.108Z,37.57
2023-04-02T14:49:31.462Z,38.42
2023-04-02T14:52:15.410Z,38.08
2023-04-02T14:55:07.296Z,39.63
2023-04-02T14:57:48.872Z,42.51
2023-04-02T15:00:40.248Z,42.56
2023-04-02T15:03:25.852Z,44.67
2023-04-02T15:06:06.106Z,45.03
2023-04-02T15:08:50.106Z,45.07
2023-04-02T15:11:26.013Z,44.04
2023-04-02T15:14:17.892Z,45.48
2023-04-02T15:16:45.071Z,46.41
2023-04-02T15:19:17.971Z,46.72
2023-04-02T15:22:15.400Z,48.02
2023-04-02T15:24:56.951Z,47.96
2023-04-02T15:27:42.628Z,47.32
2023-04-02T15:30:29.382Z,48.44
2023-04-02T15:33:19.958Z,49.21
2023-04-02T15:36:01.539Z,50.34
2023-04-02T15:38:37.976Z,48.60
2023-04-02T15:41:26.355Z,47.41
2023-04-02T15:44:16.144Z,46.31
2023-04-02T15:47:07.925Z,46.04
2023-04-02T15:49:48.800Z,45.12
2023-04-02T15:52:19.889Z,42.87
2023-04-02T15:54:59.883Z,43.35
2023-04-02T15:57:46.159Z,43.75
2023-04-02T16:00:12.944Z,43.51
2023-04-02T16:02:47.941Z,43.63
2023-04-02T16:05:38.730Z,43.32
2023-04-02T16:08:22.671Z,43.17
2023-04-02T16:10:49.411Z,43.13
2023-04-02T16:13:30.243Z,42.77
2023-04-02T16:16:08.172Z,43.10
2023-04-02T16:19:04.782Z,43.28
2023-04-02T16:21:34.871Z,43.16
2023-04-02T16:24:01.773Z,42.65
2023-04-02T16:26:40.495Z,43.03
2023-04-02T16:29:19.730Z,42.93
2023-04-02T16:32:06.630Z,43.81
2023-04-02T16:34:57.665Z,43.64
2023-04-02T16:37:38.255Z,44.13
2023-04-02T16:40:39.159Z,45.12
2023-04-02T16:43:18.386Z,42.51
2023-04-02T16:46:03.657Z,42.72
2023-04-02T16:48:57.139Z,43.25
2023-04-02T16:51:47.232Z,44.42
2023-04-02T16:54:51.152Z,45.06
2023-04-02T16:57:24.213Z,45.57
2023-04-02T17:00:15.519Z,47.82
2023-04-02T17:03:13.597Z,49.70
2023-04-02T17:05:49.648Z,55.19
2023-04-02T17:08:25.491Z,52.11
2023-04-02T17:11:05.646Z,53.63
2023-04-02T17:13:41.686Z,54.91
2023-04-02T17:16:18.713Z,55.63
2023-04-02T17:18:49.111Z,57.16
2023-04-02T17:21:22.819Z,58.98
2023-04-02T17:23:57.176Z,60.04
2023-04-02T17:26:34.719Z,61.34
2023-04-02T17:29:08.141Z,63.79
2023-04-02T17:31:37.557Z,64.38
2023-04-02T17:34:13.825Z,65.37
2023-04-02T17:36:53.620Z,66.33
2023-04-02T17:39:29.258Z,68.23
2023-04-02T17:42:07.559Z,68.52
2023-04-02T17:44:49.985Z,68.76
2023-04-02T17:47:22.129Z,72.13
2023-04-02T17:50:29.417Z,71.20
2023-04-02T17:53:30.310Z,72.57
2023-04-02T17:56:03.647Z,72.80
2023-04-02T17:58:40.751Z,72.58
2023-04-02T18:01:28.492Z,73.31
2023-04-02T18:04:12.462Z,74.92
2023-04-02T18:06:39.190Z,74.42
2023-04-02T18:09:39.441Z,75.18
2023-04-02T18:12:24.709Z,75.03
2023-04-02T18:15:32.574Z,75.93
2023-04-02T18:18:05.267Z,76.43
2023-04-02T18:20:39.516Z,76.04
2023-04-02T18:23:24.641Z,77.03
2023-04-02T18:26:15.025Z,77.11
2023-04-02T18:28:45.036Z,77.72
2023-04-02T18:31:42.740Z,77.12
2023-04-02T18:34:52.076Z,78.25
2023-04-02T18:37:34.557Z,79.38
2023-04-02T18:40:13.503Z,79.61
2023-04-02T18:43:04.503Z,78.75
2023-04-02T18:45:41.386Z,79.56
2023-04-02T18:48:20.286Z,80.09
2023-04-02T18:50:49.008Z,80.67
2023-04-02T18:53:24.051Z,80.14
2023-04-02T18:55:53.949Z,80.42
2023-04-02T18:58:27.159Z,80.76
2023-04-02T19:00:54.332Z,81.51
2023-04-02T19:03:52.543Z,81.93
2023-04-02T19:06:28.840Z,81.40
2023-04-02T19:09:15.199Z,82.12
2023-04-02T19:11:42.127Z,96.94
2023-04-02T19:14:19.793Z,86.52
2023-04-02T19:17:04.257Z,86.90
2023-04-02T19:20:03.239Z,83.98
2023-04-02T19:22:39.868Z,85.04
2023-04-02T19:25:28.358Z,86.96
2023-04-02T19:28:13.574Z,87.08
2023-04-02T19:31:09.507Z,87.65
2023-04-02T19:33:52.468Z,88.39
2023-04-02T19:36:30.834Z,88.75
2023-04-02T19:39:17.720Z,89.53
2023-04-02T19:41:51.499Z,89.59
2023-04-02T19:44:19.065Z,89.55
2023-04-02T19:46:46.669Z,89.93
2023-04-02T19:49:34.637Z,90.44
2023-04-02T19:52:01.532Z,90.89
2023-04-02T19:54:28.376Z,90.92
2023-04-02T19:56:55.563Z,91.79
2023-04-02T19:59:22.480Z,90.82
2023-04-02T20:01:49.270Z,90.76
2023-04-02T20:04:16.371Z,91.08
2023-04-02T20:06:43.291Z,92.30
2023-04-02T20:09:10.117Z,93.10
2023-04-02T20:11:38.298Z,91.59
2023-04-02T20:14:05.830Z,91.79
2023-04-02T20:16:33.884Z,92.54
2023-04-02T20:19:00.694Z,92.70
2023-04-02T20:21:27.851Z,92.43
2023-04-02T20:23:55.557Z,91.93
2023-04-02T20:26:22.801Z,92.79
2023-04-02T20:28:49.671Z,92.07
2023-04-02T20:31:18.224Z,92.89
2023-04-02T20:33:45.562Z,93.21
2023-04-02T20:36:17.297Z,93.18
2023-04-02T20:38:45.449Z,93.00
2023-04-02T20:41:12.389Z,92.60
2023-04-02T20:43:40.659Z,93.48
2023-04-02T20:46:10.116Z,93.63
2023-04-02T20:48:37.942Z,93.69
2023-04-02T20:51:06.460Z,94.52
2023-04-02T20:53:34.940Z,93.17
2023-04-02T20:56:05.547Z,93.84
2023-04-02T20:58:33.331Z,93.70
2023-04-02T21:01:27.578Z,94.19
2023-04-02T21:03:59.448Z,94.99
2023-04-02T21:06:29.641Z,97.00
2023-04-02T21:08:56.444Z,97.35
2023-04-02T21:11:24.113Z,98.55
2023-04-02T21:13:51.041Z,97.52
2023-04-02T21:16:21.670Z,98.03
2023-04-02T21:18:51.305Z,98.47
2023-04-02T21:21:18.973Z,98.45
2023-04-02T21:23:46.464Z,98.53
2023-04-02T21:26:15.732Z,98.93
2023-04-02T21:28:44.278Z,99.06
2023-04-02T21:31:17.621Z,98.78
2023-04-02T21:33:50.857Z,99.20
2023-04-02T21:36:21.640Z,98.32
2023-04-02T21:38:56.759Z,99.03
2023-04-02T21:41:26.540Z,97.53
2023-04-02T21:43:54.233Z,98.27
2023-04-02T21:46:24.804Z,98.11
2023-04-02T21:48:53.268Z,98.97
2023-04-02T21:51:26.343Z,98.15
2023-04-02T21:53:56.032Z,99.99
2023-04-02T21:56:31.501Z,98.07
2023-04-02T21:58:59.014Z,97.45
2023-04-02T22:01:28.089Z,97.56
2023-04-02T22:03:56.545Z,98.04
2023-04-02T22:06:26.376Z,97.69
2023-04-02T22:08:56.254Z,98.10
2023-04-02T22:11:26.560Z,97.94
2023-04-02T22:13:54.035Z,97.78
2023-04-02T22:16:26.574Z,98.34
2023-04-02T22:18:56.772Z,98.28
2023-04-02T22:21:24.104Z,98.05
2023-04-02T22:23:51.168Z,98.16
2023-04-02T22:26:19.864Z,98.26
2023-04-02T22:28:47.154Z,99.33
2023-04-02T22:31:19.818Z,99.00
2023-04-02T22:33:47.331Z,98.97
2023-04-02T22:36:15.098Z,99.72
2023-04-02T22:38:42.424Z,100.06
2023-04-02T22:41:18.168Z,100.15
2023-04-02T22:43:45.893Z,100.79
2023-04-02T22:46:14.736Z,101.20
2023-04-02T22:48:42.458Z,100.90
2023-04-02T22:51:11.499Z,100.64
2023-04-02T22:53:39.208Z,100.89
2023-04-02T22:56:14.850Z,100.92
2023-04-02T22:58:42.857Z,100.72
2023-04-02T23:01:17.673Z,101.05
2023-04-02T23:03:44.559Z,100.58
2023-04-02T23:06:17.290Z,100.77
2023-04-02T23:08:45.064Z,101.03
2023-04-02T23:11:21.950Z,101.08
2023-04-02T23:13:50.449Z,101.42
2023-04-02T23:16:18.454Z,102.55
2023-04-02T23:18:49.322Z,103.35
2023-04-02T23:21:17.840Z,103.60
2023-04-02T23:23:45.954Z,104.95
2023-04-02T23:26:18.917Z,104.26
2023-04-02T23:28:45.993Z,104.13
2023-04-02T23:31:16.685Z,103.38
2023-04-02T23:33:44.487Z,103.92
2023-04-02T23:36:34.260Z,103.90
2023-04-02T23:39:09.545Z,104.11
2023-04-02T23:41:38.333Z,104.80
2023-04-02T23:44:05.764Z,105.56
2023-04-02T23:46:36.008Z,105.76
2023-04-02T23:49:03.710Z,105.96
2023-04-02T23:51:32.194Z,105.40
2023-04-02T23:53:59.012Z,105.36
2023-04-02T23:56:26.414Z,105.13
2023-04-02T23:58:53.298Z,105.05
